sensor_id;sensor_type;location;lat;lon;timestamp;P1;durP1;ratioP1;P2;durP2;ratioP2
65535;SDS011;52145;49.342;9.116;2022-09-21T00:00:12;5.70;;;3.55;;
65535;SDS011;52145;49.342;9.116;2022-09-21T00:02:38;13.73;;;4.78;;
65535;SDS011;52145;49.342;9.116;2022-09-21T00:05:04;7.65;;;3.80;;
65535;SDS011;52145;49.342;9.116;2022-09-21T00:07:30;7.07;;;3.22;;
65535;SDS011;52145;49.342;9.116;2022-09-21T00:09:56;8.45;;;3.55;;
65535;SDS011;52145;49.342;9.116;2022-09-21T00:12:22;4.85;;;3.38;;
65535;SDS011;52145;49.342;9.116;2022-09-21T00:14:48;8.50;;;3.92;;
65535;SDS011;52145;49.342;9.116;2022-09-21T00:17:14;7.05;;;3.60;;
65535;SDS011;52145;49.342;9.116;2022-09-21T00:19:39;8.02;;;4.45;;
65535;SDS011;52145;49.342;9.116;2022-09-21T00:22:05;6.68;;;3.88;;
65535;SDS011;52145;49.342;9.116;2022-09-21T00:24:32;5.65;;;3.42;;
65535;SDS011;52145;49.342;9.116;2022-09-21T00:26:59;6.70;;;3.28;;
65535;SDS011;52145;49.342;9.116;2022-09-21T00:29:24;6.70;;;3.13;;
65535;SDS011;52145;49.342;9.116;2022-09-21T00:31:50;7.88;;;3.97;;
65535;SDS011;52145;49.342;9.116;2022-09-21T00:34:15;7.80;;;3.83;;
65535;SDS011;52145;49.342;9.116;2022-09-21T00:36:41;7.55;;;3.80;;
65535;SDS011;52145;49.342;9.116;2022-09-21T00:39:07;11.18;;;4.72;;
65535;SDS011;52145;49.342;9.116;2022-09-21T00:41:33;41.17;;;14.20;;
65535;SDS011;52145;49.342;9.116;2022-09-21T00:46:45;13.02;;;5.70;;
65535;SDS011;52145;49.342;9.116;2022-09-21T00:49:13;23.92;;;8.20;;
65535;SDS011;52145;49.342;9.116;2022-09-21T00:51:39;13.18;;;5.32;;
65535;SDS011;52145;49.342;9.116;2022-09-21T00:54:08;13.05;;;4.70;;
65535;SDS011;52145;49.342;9.116;2022-09-21T00:56:39;9.45;;;4.00;;
65535;SDS011;52145;49.342;9.116;2022-09-21T00:59:06;7.03;;;3.45;;
65535;SDS011;52145;49.342;9.116;2022-09-21T01:01:34;6.93;;;4.07;;
65535;SDS011;52145;49.342;9.116;2022-09-21T01:04:02;8.75;;;3.97;;
65535;SDS011;52145;49.342;9.116;2022-09-21T01:06:29;8.23;;;3.63;;
65535;SDS011;52145;49.342;9.116;2022-09-21T01:08:58;5.57;;;3.40;;
65535;SDS011;52145;49.342;9.116;2022-09-21T01:16:29;9.77;;;3.50;;
65535;SDS011;52145;49.342;9.116;2022-09-21T01:22:13;9.23;;;3.72;;
65535;SDS011;52145;49.342;9.116;2022-09-21T01:25:06;7.65;;;3.25;;
65535;SDS011;52145;49.342;9.116;2022-09-21T01:28:03;5.57;;;3.45;;
65535;SDS011;52145;49.342;9.116;2022-09-21T01:30:40;5.57;;;3.55;;
65535;SDS011;52145;49.342;9.116;2022-09-21T01:33:20;8.23;;;3.63;;
65535;SDS011;52145;49.342;9.116;2022-09-21T01:35:55;10.10;;;3.95;;
65535;SDS011;52145;49.342;9.116;2022-09-21T01:39:06;6.15;;;3.58;;
65535;SDS011;52145;49.342;9.116;2022-09-21T01:41:17;9.32;;;3.72;;
65535;SDS011;52145;49.342;9.116;2022-09-21T01:43:48;10.48;;;3.63;;
65535;SDS011;52145;49.342;9.116;2022-09-21T01:46:20;7.20;;;3.63;;
65535;SDS011;52145;49.342;9.116;2022-09-21T01:48:51;7.85;;;3.08;;
65535;SDS011;52145;49.342;9.116;2022-09-21T01:51:19;7.72;;;3.22;;
65535;SDS011;52145;49.342;9.116;2022-09-21T01:53:50;6.30;;;3.28;;
65535;SDS011;52145;49.342;9.116;2022-09-21T02:01:42;5.05;;;3.30;;
65535;SDS011;52145;49.342;9.116;2022-09-21T02:04:15;6.22;;;3.33;;
65535;SDS011;52145;49.342;9.116;2022-09-21T02:06:41;7.22;;;3.67;;
65535;SDS011;52145;49.342;9.116;2022-09-21T02:09:09;9.23;;;4.13;;
65535;SDS011;52145;49.342;9.116;2022-09-21T02:11:35;4.97;;;3.05;;
65535;SDS011;52145;49.342;9.116;2022-09-21T02:14:15;6.50;;;3.38;;
65535;SDS011;52145;49.342;9.116;2022-09-21T02:17:00;8.20;;;2.90;;
65535;SDS011;52145;49.342;9.116;2022-09-21T02:22:35;8.77;;;3.42;;
65535;SDS011;52145;49.342;9.116;2022-09-21T02:25:15;8.48;;;3.72;;
65535;SDS011;52145;49.342;9.116;2022-09-21T02:27:53;7.88;;;3.35;;
65535;SDS011;52145;49.342;9.116;2022-09-21T02:30:27;5.60;;;3.13;;
65535;SDS011;52145;49.342;9.116;2022-09-21T02:38:17;7.40;;;4.13;;
65535;SDS011;52145;49.342;9.116;2022-09-21T02:40:51;7.18;;;3.60;;
65535;SDS011;52145;49.342;9.116;2022-09-21T02:43:22;4.97;;;3.03;;
65535;SDS011;52145;49.342;9.116;2022-09-21T02:45:55;6.75;;;3.30;;
65535;SDS011;52145;49.342;9.116;2022-09-21T02:48:30;5.45;;;2.88;;
65535;SDS011;52145;49.342;9.116;2022-09-21T02:51:06;4.97;;;3.20;;
65535;SDS011;52145;49.342;9.116;2022-09-21T02:53:35;6.70;;;3.30;;
65535;SDS011;52145;49.342;9.116;2022-09-21T02:56:03;5.60;;;3.15;;
65535;SDS011;52145;49.342;9.116;2022-09-21T02:58:36;5.75;;;3.28;;
65535;SDS011;52145;49.342;9.116;2022-09-21T03:01:05;6.10;;;3.30;;
65535;SDS011;52145;49.342;9.116;2022-09-21T03:03:34;12.23;;;3.20;;
65535;SDS011;52145;49.342;9.116;2022-09-21T03:06:00;4.25;;;2.65;;
65535;SDS011;52145;49.342;9.116;2022-09-21T03:08:26;5.90;;;3.10;;
65535;SDS011;52145;49.342;9.116;2022-09-21T03:10:51;9.20;;;3.13;;
65535;SDS011;52145;49.342;9.116;2022-09-21T03:13:17;5.68;;;2.90;;
65535;SDS011;52145;49.342;9.116;2022-09-21T03:15:43;8.32;;;2.95;;
65535;SDS011;52145;49.342;9.116;2022-09-21T03:18:10;3.95;;;2.50;;
65535;SDS011;52145;49.342;9.116;2022-09-21T03:20:40;6.90;;;3.20;;
65535;SDS011;52145;49.342;9.116;2022-09-21T03:23:11;4.30;;;2.55;;
65535;SDS011;52145;49.342;9.116;2022-09-21T03:25:37;5.68;;;3.00;;
65535;SDS011;52145;49.342;9.116;2022-09-21T03:28:03;7.35;;;3.22;;
65535;SDS011;52145;49.342;9.116;2022-09-21T03:30:29;7.72;;;3.72;;
65535;SDS011;52145;49.342;9.116;2022-09-21T03:32:55;7.60;;;3.42;;
65535;SDS011;52145;49.342;9.116;2022-09-21T03:35:22;14.85;;;3.28;;
65535;SDS011;52145;49.342;9.116;2022-09-21T03:37:50;7.45;;;3.40;;
65535;SDS011;52145;49.342;9.116;2022-09-21T03:40:16;6.13;;;3.22;;
65535;SDS011;52145;49.342;9.116;2022-09-21T03:42:43;4.93;;;2.80;;
65535;SDS011;52145;49.342;9.116;2022-09-21T03:45:09;4.65;;;2.60;;
65535;SDS011;52145;49.342;9.116;2022-09-21T03:47:36;13.68;;;3.22;;
65535;SDS011;52145;49.342;9.116;2022-09-21T03:50:03;6.78;;;3.30;;
65535;SDS011;52145;49.342;9.116;2022-09-21T03:52:30;4.35;;;2.38;;
65535;SDS011;52145;49.342;9.116;2022-09-21T03:54:55;4.70;;;2.72;;
65535;SDS011;52145;49.342;9.116;2022-09-21T03:57:21;13.55;;;2.90;;
65535;SDS011;52145;49.342;9.116;2022-09-21T03:59:46;7.20;;;2.83;;
65535;SDS011;52145;49.342;9.116;2022-09-21T04:02:13;7.68;;;2.65;;
65535;SDS011;52145;49.342;9.116;2022-09-21T04:04:39;6.97;;;2.42;;
65535;SDS011;52145;49.342;9.116;2022-09-21T04:07:05;6.90;;;4.32;;
65535;SDS011;52145;49.342;9.116;2022-09-21T04:09:31;12.68;;;4.20;;
65535;SDS011;52145;49.342;9.116;2022-09-21T04:11:56;4.82;;;2.90;;
65535;SDS011;52145;49.342;9.116;2022-09-21T04:14:22;6.55;;;3.05;;
65535;SDS011;52145;49.342;9.116;2022-09-21T04:16:48;6.97;;;3.20;;
65535;SDS011;52145;49.342;9.116;2022-09-21T04:19:16;9.35;;;4.72;;
65535;SDS011;52145;49.342;9.116;2022-09-21T04:21:41;12.82;;;4.88;;
65535;SDS011;52145;49.342;9.116;2022-09-21T04:24:07;8.40;;;4.07;;
65535;SDS011;52145;49.342;9.116;2022-09-21T04:26:33;106.68;;;8.45;;
65535;SDS011;52145;49.342;9.116;2022-09-21T04:28:59;11.32;;;4.25;;
65535;SDS011;52145;49.342;9.116;2022-09-21T04:31:25;9.40;;;4.53;;
65535;SDS011;52145;49.342;9.116;2022-09-21T04:33:53;6.57;;;3.30;;
65535;SDS011;52145;49.342;9.116;2022-09-21T04:36:20;8.18;;;3.17;;
65535;SDS011;52145;49.342;9.116;2022-09-21T04:38:46;7.20;;;2.95;;
65535;SDS011;52145;49.342;9.116;2022-09-21T04:41:12;7.43;;;3.47;;
65535;SDS011;52145;49.342;9.116;2022-09-21T04:43:43;6.88;;;2.92;;
65535;SDS011;52145;49.342;9.116;2022-09-21T04:46:11;4.75;;;2.78;;
65535;SDS011;52145;49.342;9.116;2022-09-21T04:48:39;6.38;;;2.90;;
65535;SDS011;52145;49.342;9.116;2022-09-21T04:51:05;5.32;;;3.33;;
65535;SDS011;52145;49.342;9.116;2022-09-21T04:53:34;6.03;;;2.83;;
65535;SDS011;52145;49.342;9.116;2022-09-21T04:56:01;9.07;;;2.90;;
65535;SDS011;52145;49.342;9.116;2022-09-21T04:58:28;6.10;;;2.53;;
65535;SDS011;52145;49.342;9.116;2022-09-21T05:00:53;4.40;;;2.80;;
65535;SDS011;52145;49.342;9.116;2022-09-21T05:03:20;9.38;;;3.00;;
65535;SDS011;52145;49.342;9.116;2022-09-21T05:05:50;4.95;;;2.67;;
65535;SDS011;52145;49.342;9.116;2022-09-21T05:08:17;5.63;;;2.55;;
65535;SDS011;52145;49.342;9.116;2022-09-21T05:11:03;9.40;;;3.08;;
65535;SDS011;52145;49.342;9.116;2022-09-21T05:13:30;7.82;;;3.42;;
65535;SDS011;52145;49.342;9.116;2022-09-21T05:15:55;6.45;;;3.05;;
65535;SDS011;52145;49.342;9.116;2022-09-21T05:18:21;7.68;;;3.70;;
65535;SDS011;52145;49.342;9.116;2022-09-21T05:20:53;25.60;;;6.15;;
65535;SDS011;52145;49.342;9.116;2022-09-21T05:23:20;17.77;;;6.40;;
65535;SDS011;52145;49.342;9.116;2022-09-21T05:25:46;11.65;;;5.38;;
65535;SDS011;52145;49.342;9.116;2022-09-21T05:28:11;11.63;;;4.57;;
65535;SDS011;52145;49.342;9.116;2022-09-21T05:30:37;8.80;;;4.22;;
65535;SDS011;52145;49.342;9.116;2022-09-21T05:33:03;9.32;;;4.32;;
65535;SDS011;52145;49.342;9.116;2022-09-21T05:38:13;5.43;;;2.97;;
65535;SDS011;52145;49.342;9.116;2022-09-21T05:40:42;8.52;;;4.28;;
65535;SDS011;52145;49.342;9.116;2022-09-21T05:43:08;8.45;;;3.58;;
65535;SDS011;52145;49.342;9.116;2022-09-21T05:45:35;11.02;;;4.35;;
65535;SDS011;52145;49.342;9.116;2022-09-21T05:53:28;11.48;;;3.47;;
65535;SDS011;52145;49.342;9.116;2022-09-21T05:59:04;7.25;;;2.58;;
65535;SDS011;52145;49.342;9.116;2022-09-21T06:01:57;8.82;;;2.67;;
65535;SDS011;52145;49.342;9.116;2022-09-21T06:04:24;5.97;;;2.75;;
65535;SDS011;52145;49.342;9.116;2022-09-21T06:06:50;7.35;;;3.05;;
65535;SDS011;52145;49.342;9.116;2022-09-21T06:09:16;8.35;;;3.20;;
65535;SDS011;52145;49.342;9.116;2022-09-21T06:11:42;6.93;;;3.47;;
65535;SDS011;52145;49.342;9.116;2022-09-21T06:14:07;6.00;;;3.25;;
65535;SDS011;52145;49.342;9.116;2022-09-21T06:16:36;12.73;;;3.65;;
65535;SDS011;52145;49.342;9.116;2022-09-21T06:19:06;5.70;;;3.50;;
65535;SDS011;52145;49.342;9.116;2022-09-21T06:21:35;6.13;;;3.50;;
65535;SDS011;52145;49.342;9.116;2022-09-21T06:24:01;7.50;;;3.05;;
65535;SDS011;52145;49.342;9.116;2022-09-21T06:26:26;5.60;;;3.33;;
65535;SDS011;52145;49.342;9.116;2022-09-21T06:28:52;7.13;;;3.17;;
65535;SDS011;52145;49.342;9.116;2022-09-21T06:31:18;8.35;;;3.25;;
65535;SDS011;52145;49.342;9.116;2022-09-21T06:33:44;9.75;;;3.58;;
65535;SDS011;52145;49.342;9.116;2022-09-21T06:36:09;13.10;;;3.78;;
65535;SDS011;52145;49.342;9.116;2022-09-21T06:38:35;6.75;;;3.13;;
65535;SDS011;52145;49.342;9.116;2022-09-21T06:41:01;11.32;;;3.13;;
65535;SDS011;52145;49.342;9.116;2022-09-21T06:43:28;8.75;;;4.03;;
65535;SDS011;52145;49.342;9.116;2022-09-21T06:45:54;11.48;;;3.70;;
65535;SDS011;52145;49.342;9.116;2022-09-21T06:48:21;11.15;;;3.97;;
65535;SDS011;52145;49.342;9.116;2022-09-21T06:50:47;8.57;;;3.35;;
65535;SDS011;52145;49.342;9.116;2022-09-21T06:53:13;6.07;;;3.33;;
65535;SDS011;52145;49.342;9.116;2022-09-21T06:55:40;8.55;;;3.35;;
65535;SDS011;52145;49.342;9.116;2022-09-21T06:58:05;5.88;;;2.90;;
65535;SDS011;52145;49.342;9.116;2022-09-21T07:00:31;7.50;;;3.10;;
65535;SDS011;52145;49.342;9.116;2022-09-21T07:02:57;8.18;;;4.43;;
65535;SDS011;52145;49.342;9.116;2022-09-21T07:05:23;11.55;;;4.40;;
65535;SDS011;52145;49.342;9.116;2022-09-21T07:07:49;8.05;;;4.80;;
65535;SDS011;52145;49.342;9.116;2022-09-21T07:10:15;10.25;;;5.00;;
65535;SDS011;52145;49.342;9.116;2022-09-21T07:15:07;11.90;;;6.47;;
65535;SDS011;52145;49.342;9.116;2022-09-21T07:17:34;9.68;;;5.38;;
65535;SDS011;52145;49.342;9.116;2022-09-21T07:20:02;9.80;;;5.07;;
65535;SDS011;52145;49.342;9.116;2022-09-21T07:22:29;22.35;;;11.88;;
65535;SDS011;52145;49.342;9.116;2022-09-21T07:24:56;18.17;;;10.75;;
65535;SDS011;52145;49.342;9.116;2022-09-21T07:27:22;19.88;;;9.75;;
65535;SDS011;52145;49.342;9.116;2022-09-21T07:29:49;16.42;;;9.82;;
65535;SDS011;52145;49.342;9.116;2022-09-21T07:32:15;15.15;;;8.73;;
65535;SDS011;52145;49.342;9.116;2022-09-21T07:34:40;14.07;;;8.02;;
65535;SDS011;52145;49.342;9.116;2022-09-21T07:37:06;14.68;;;7.38;;
65535;SDS011;52145;49.342;9.116;2022-09-21T07:39:32;15.73;;;7.88;;
65535;SDS011;52145;49.342;9.116;2022-09-21T07:41:57;14.07;;;7.25;;
65535;SDS011;52145;49.342;9.116;2022-09-21T07:44:23;15.05;;;7.68;;
65535;SDS011;52145;49.342;9.116;2022-09-21T07:46:49;16.73;;;7.78;;
65535;SDS011;52145;49.342;9.116;2022-09-21T07:49:15;13.02;;;7.45;;
65535;SDS011;52145;49.342;9.116;2022-09-21T07:51:41;12.57;;;7.13;;
65535;SDS011;52145;49.342;9.116;2022-09-21T07:54:08;13.43;;;7.07;;
65535;SDS011;52145;49.342;9.116;2022-09-21T07:56:35;11.70;;;7.05;;
65535;SDS011;52145;49.342;9.116;2022-09-21T07:59:01;11.40;;;6.55;;
65535;SDS011;52145;49.342;9.116;2022-09-21T08:01:30;12.45;;;6.38;;
65535;SDS011;52145;49.342;9.116;2022-09-21T08:03:58;11.30;;;6.63;;
65535;SDS011;52145;49.342;9.116;2022-09-21T08:06:24;13.70;;;6.03;;
65535;SDS011;52145;49.342;9.116;2022-09-21T08:08:51;16.73;;;5.90;;
65535;SDS011;52145;49.342;9.116;2022-09-21T08:11:18;10.90;;;5.18;;
65535;SDS011;52145;49.342;9.116;2022-09-21T08:13:46;11.20;;;5.60;;
65535;SDS011;52145;49.342;9.116;2022-09-21T08:16:12;8.70;;;5.47;;
65535;SDS011;52145;49.342;9.116;2022-09-21T08:18:39;10.82;;;5.25;;
65535;SDS011;52145;49.342;9.116;2022-09-21T08:21:05;11.57;;;5.28;;
65535;SDS011;52145;49.342;9.116;2022-09-21T08:23:32;8.93;;;5.18;;
65535;SDS011;52145;49.342;9.116;2022-09-21T08:26:01;10.38;;;4.38;;
65535;SDS011;52145;49.342;9.116;2022-09-21T08:28:29;10.02;;;4.75;;
65535;SDS011;52145;49.342;9.116;2022-09-21T08:30:58;7.45;;;3.83;;
65535;SDS011;52145;49.342;9.116;2022-09-21T08:33:25;10.07;;;4.05;;
65535;SDS011;52145;49.342;9.116;2022-09-21T08:35:52;7.90;;;3.78;;
65535;SDS011;52145;49.342;9.116;2022-09-21T08:38:18;6.97;;;3.83;;
65535;SDS011;52145;49.342;9.116;2022-09-21T08:40:44;6.45;;;3.25;;
65535;SDS011;52145;49.342;9.116;2022-09-21T08:43:10;5.18;;;2.88;;
65535;SDS011;52145;49.342;9.116;2022-09-21T08:45:43;7.82;;;2.85;;
65535;SDS011;52145;49.342;9.116;2022-09-21T08:48:13;5.72;;;2.33;;
65535;SDS011;52145;49.342;9.116;2022-09-21T08:50:53;6.10;;;2.83;;
65535;SDS011;52145;49.342;9.116;2022-09-21T08:53:26;5.05;;;2.70;;
65535;SDS011;52145;49.342;9.116;2022-09-21T08:55:57;5.88;;;2.30;;
65535;SDS011;52145;49.342;9.116;2022-09-21T08:58:23;5.90;;;2.20;;
65535;SDS011;52145;49.342;9.116;2022-09-21T09:09:25;3.13;;;1.10;;
65535;SDS011;52145;49.342;9.116;2022-09-21T09:14:39;3.47;;;1.33;;
65535;SDS011;52145;49.342;9.116;2022-09-21T09:20:31;1.63;;;1.20;;
65535;SDS011;52145;49.342;9.116;2022-09-21T09:25:49;1.65;;;1.00;;
65535;SDS011;52145;49.342;9.116;2022-09-21T09:28:20;2.15;;;0.80;;
65535;SDS011;52145;49.342;9.116;2022-09-21T09:36:30;3.08;;;0.93;;
65535;SDS011;52145;49.342;9.116;2022-09-21T09:38:59;3.75;;;0.82;;
65535;SDS011;52145;49.342;9.116;2022-09-21T09:46:40;3.28;;;1.15;;
65535;SDS011;52145;49.342;9.116;2022-09-21T09:51:57;1.38;;;0.80;;
65535;SDS011;52145;49.342;9.116;2022-09-21T09:54:24;5.53;;;1.15;;
65535;SDS011;52145;49.342;9.116;2022-09-21T09:56:52;5.13;;;1.52;;
65535;SDS011;52145;49.342;9.116;2022-09-21T09:59:26;2.92;;;0.88;;
65535;SDS011;52145;49.342;9.116;2022-09-21T10:02:22;2.13;;;0.80;;
65535;SDS011;52145;49.342;9.116;2022-09-21T10:04:59;1.63;;;0.90;;
65535;SDS011;52145;49.342;9.116;2022-09-21T10:12:54;1.55;;;0.75;;
65535;SDS011;52145;49.342;9.116;2022-09-21T10:15:22;2.55;;;0.90;;
65535;SDS011;52145;49.342;9.116;2022-09-21T10:17:56;1.85;;;0.88;;
65535;SDS011;52145;49.342;9.116;2022-09-21T10:20:27;1.80;;;0.80;;
65535;SDS011;52145;49.342;9.116;2022-09-21T10:22:54;1.90;;;0.50;;
65535;SDS011;52145;49.342;9.116;2022-09-21T10:25:21;3.42;;;0.90;;
65535;SDS011;52145;49.342;9.116;2022-09-21T10:27:47;2.00;;;0.60;;
65535;SDS011;52145;49.342;9.116;2022-09-21T10:32:54;2.55;;;0.80;;
65535;SDS011;52145;49.342;9.116;2022-09-21T10:35:21;0.95;;;0.60;;
65535;SDS011;52145;49.342;9.116;2022-09-21T10:37:46;1.30;;;0.68;;
65535;SDS011;52145;49.342;9.116;2022-09-21T10:42:48;9.25;;;4.55;;
65535;SDS011;52145;49.342;9.116;2022-09-21T10:45:16;2.28;;;0.90;;
65535;SDS011;52145;49.342;9.116;2022-09-21T10:48:11;1.70;;;0.63;;
65535;SDS011;52145;49.342;9.116;2022-09-21T10:50:44;2.20;;;0.77;;
65535;SDS011;52145;49.342;9.116;2022-09-21T10:56:06;1.77;;;0.55;;
65535;SDS011;52145;49.342;9.116;2022-09-21T10:58:33;0.90;;;0.40;;
65535;SDS011;52145;49.342;9.116;2022-09-21T11:01:12;4.13;;;0.65;;
65535;SDS011;52145;49.342;9.116;2022-09-21T11:03:55;2.13;;;0.63;;
65535;SDS011;52145;49.342;9.116;2022-09-21T11:11:40;17.30;;;2.65;;
65535;SDS011;52145;49.342;9.116;2022-09-21T11:14:41;4.50;;;0.70;;
65535;SDS011;52145;49.342;9.116;2022-09-21T11:17:34;15.48;;;2.05;;
65535;SDS011;52145;49.342;9.116;2022-09-21T11:20:07;3.92;;;1.45;;
65535;SDS011;52145;49.342;9.116;2022-09-21T11:22:59;26.88;;;3.65;;
65535;SDS011;52145;49.342;9.116;2022-09-21T11:25:47;3.90;;;1.02;;
65535;SDS011;52145;49.342;9.116;2022-09-21T11:28:32;9.75;;;1.58;;
65535;SDS011;52145;49.342;9.116;2022-09-21T11:33:44;15.50;;;2.55;;
65535;SDS011;52145;49.342;9.116;2022-09-21T11:41:59;34.75;;;4.20;;
65535;SDS011;52145;49.342;9.116;2022-09-21T11:53:24;1.98;;;0.50;;
65535;SDS011;52145;49.342;9.116;2022-09-21T11:58:56;16.77;;;1.40;;
65535;SDS011;52145;49.342;9.116;2022-09-21T12:07:00;9.88;;;1.15;;
65535;SDS011;52145;49.342;9.116;2022-09-21T12:09:48;2.65;;;1.10;;
65535;SDS011;52145;49.342;9.116;2022-09-21T12:18:09;2.45;;;0.60;;
65535;SDS011;52145;49.342;9.116;2022-09-21T12:21:00;1.10;;;0.65;;
65535;SDS011;52145;49.342;9.116;2022-09-21T12:23:47;4.18;;;2.03;;
65535;SDS011;52145;49.342;9.116;2022-09-21T12:26:21;3.35;;;1.10;;
65535;SDS011;52145;49.342;9.116;2022-09-21T12:29:25;1.13;;;0.60;;
65535;SDS011;52145;49.342;9.116;2022-09-21T12:34:30;16.00;;;1.83;;
65535;SDS011;52145;49.342;9.116;2022-09-21T12:37:24;1.33;;;0.50;;
65535;SDS011;52145;49.342;9.116;2022-09-21T12:39:57;15.18;;;1.40;;
65535;SDS011;52145;49.342;9.116;2022-09-21T12:42:32;1.83;;;0.60;;
65535;SDS011;52145;49.342;9.116;2022-09-21T12:45:26;2.03;;;0.90;;
65535;SDS011;52145;49.342;9.116;2022-09-21T12:48:20;1.40;;;0.68;;
65535;SDS011;52145;49.342;9.116;2022-09-21T12:51:13;0.73;;;0.50;;
65535;SDS011;52145;49.342;9.116;2022-09-21T12:53:46;3.60;;;1.13;;
65535;SDS011;52145;49.342;9.116;2022-09-21T13:04:11;8.55;;;1.60;;
65535;SDS011;52145;49.342;9.116;2022-09-21T13:09:44;1.75;;;0.73;;
65535;SDS011;52145;49.342;9.116;2022-09-21T13:12:21;2.58;;;0.60;;
65535;SDS011;52145;49.342;9.116;2022-09-21T13:14:50;1.30;;;0.60;;
65535;SDS011;52145;49.342;9.116;2022-09-21T13:17:22;1.50;;;0.63;;
65535;SDS011;52145;49.342;9.116;2022-09-21T13:20:03;2.10;;;0.60;;
65535;SDS011;52145;49.342;9.116;2022-09-21T13:22:32;2.78;;;0.77;;
65535;SDS011;52145;49.342;9.116;2022-09-21T13:26:35;1.52;;;0.60;;
65535;SDS011;52145;49.342;9.116;2022-09-21T13:34:44;1.15;;;0.70;;
65535;SDS011;52145;49.342;9.116;2022-09-21T13:37:20;4.50;;;0.80;;
65535;SDS011;52145;49.342;9.116;2022-09-21T13:44:58;3.03;;;0.85;;
65535;SDS011;52145;49.342;9.116;2022-09-21T13:47:53;1.63;;;1.00;;
65535;SDS011;52145;49.342;9.116;2022-09-21T13:50:24;5.82;;;1.23;;
65535;SDS011;52145;49.342;9.116;2022-09-21T13:52:54;0.60;;;0.50;;
65535;SDS011;52145;49.342;9.116;2022-09-21T13:55:41;1.40;;;0.68;;
65535;SDS011;52145;49.342;9.116;2022-09-21T13:58:24;1.58;;;0.60;;
65535;SDS011;52145;49.342;9.116;2022-09-21T14:01:12;1.17;;;0.60;;
65535;SDS011;52145;49.342;9.116;2022-09-21T14:03:50;1.45;;;0.70;;
65535;SDS011;52145;49.342;9.116;2022-09-21T14:06:27;1.83;;;0.73;;
65535;SDS011;52145;49.342;9.116;2022-09-21T14:09:00;1.50;;;0.80;;
65535;SDS011;52145;49.342;9.116;2022-09-21T14:19:57;0.50;;;0.43;;
65535;SDS011;52145;49.342;9.116;2022-09-21T14:29:54;1.27;;;0.80;;
65535;SDS011;52145;49.342;9.116;2022-09-21T14:32:29;1.35;;;0.60;;
65535;SDS011;52145;49.342;9.116;2022-09-21T14:35:08;1.52;;;0.60;;
65535;SDS011;52145;49.342;9.116;2022-09-21T14:37:54;0.82;;;0.60;;
65535;SDS011;52145;49.342;9.116;2022-09-21T14:40:24;1.15;;;0.50;;
65535;SDS011;52145;49.342;9.116;2022-09-21T14:42:55;2.03;;;0.60;;
65535;SDS011;52145;49.342;9.116;2022-09-21T14:48:29;1.13;;;0.77;;
65535;SDS011;52145;49.342;9.116;2022-09-21T15:02:01;3.15;;;1.20;;
65535;SDS011;52145;49.342;9.116;2022-09-21T15:07:45;2.83;;;0.90;;
65535;SDS011;52145;49.342;9.116;2022-09-21T15:19:10;2.45;;;0.80;;
65535;SDS011;52145;49.342;9.116;2022-09-21T15:21:45;3.22;;;0.70;;
65535;SDS011;52145;49.342;9.116;2022-09-21T15:24:19;1.60;;;0.77;;
65535;SDS011;52145;49.342;9.116;2022-09-21T15:27:04;1.25;;;0.80;;
65535;SDS011;52145;49.342;9.116;2022-09-21T15:29:34;1.08;;;0.80;;
65535;SDS011;52145;49.342;9.116;2022-09-21T15:32:01;1.00;;;0.50;;
65535;SDS011;52145;49.342;9.116;2022-09-21T15:34:29;0.60;;;0.45;;
65535;SDS011;52145;49.342;9.116;2022-09-21T15:37:04;0.85;;;0.80;;
65535;SDS011;52145;49.342;9.116;2022-09-21T15:39:31;0.40;;;0.40;;
65535;SDS011;52145;49.342;9.116;2022-09-21T15:42:07;1.75;;;0.90;;
65535;SDS011;52145;49.342;9.116;2022-09-21T15:44:42;1.00;;;0.60;;
65535;SDS011;52145;49.342;9.116;2022-09-21T15:47:12;1.08;;;0.60;;
65535;SDS011;52145;49.342;9.116;2022-09-21T15:49:40;1.15;;;0.70;;
65535;SDS011;52145;49.342;9.116;2022-09-21T15:54:57;1.83;;;0.90;;
65535;SDS011;52145;49.342;9.116;2022-09-21T16:02:39;1.00;;;0.70;;
65535;SDS011;52145;49.342;9.116;2022-09-21T16:05:10;1.75;;;0.50;;
65535;SDS011;52145;49.342;9.116;2022-09-21T16:07:38;1.05;;;0.60;;
65535;SDS011;52145;49.342;9.116;2022-09-21T16:13:03;1.15;;;0.55;;
65535;SDS011;52145;49.342;9.116;2022-09-21T16:16:03;1.08;;;0.80;;
65535;SDS011;52145;49.342;9.116;2022-09-21T16:18:31;3.10;;;0.87;;
65535;SDS011;52145;49.342;9.116;2022-09-21T16:21:23;1.38;;;0.80;;
65535;SDS011;52145;49.342;9.116;2022-09-21T16:23:52;3.05;;;0.75;;
65535;SDS011;52145;49.342;9.116;2022-09-21T16:26:27;1.80;;;0.82;;
65535;SDS011;52145;49.342;9.116;2022-09-21T16:29:15;1.65;;;0.80;;
65535;SDS011;52145;49.342;9.116;2022-09-21T16:31:43;1.23;;;1.00;;
65535;SDS011;52145;49.342;9.116;2022-09-21T16:36:46;0.93;;;0.70;;
65535;SDS011;52145;49.342;9.116;2022-09-21T16:39:14;1.02;;;0.70;;
65535;SDS011;52145;49.342;9.116;2022-09-21T16:41:45;1.08;;;0.70;;
65535;SDS011;52145;49.342;9.116;2022-09-21T16:44:14;2.67;;;0.73;;
65535;SDS011;52145;49.342;9.116;2022-09-21T16:47:09;2.75;;;1.00;;
65535;SDS011;52145;49.342;9.116;2022-09-21T16:49:35;1.02;;;0.88;;
65535;SDS011;52145;49.342;9.116;2022-09-21T16:52:01;1.02;;;0.88;;
65535;SDS011;52145;49.342;9.116;2022-09-21T16:54:27;1.98;;;1.13;;
65535;SDS011;52145;49.342;9.116;2022-09-21T16:56:54;1.45;;;0.80;;
65535;SDS011;52145;49.342;9.116;2022-09-21T16:59:21;1.15;;;0.70;;
65535;SDS011;52145;49.342;9.116;2022-09-21T17:01:51;3.38;;;0.73;;
65535;SDS011;52145;49.342;9.116;2022-09-21T17:04:19;4.00;;;1.30;;
65535;SDS011;52145;49.342;9.116;2022-09-21T17:06:47;1.38;;;0.85;;
65535;SDS011;52145;49.342;9.116;2022-09-21T17:09:16;1.80;;;0.70;;
65535;SDS011;52145;49.342;9.116;2022-09-21T17:11:43;0.93;;;0.80;;
65535;SDS011;52145;49.342;9.116;2022-09-21T17:14:10;4.18;;;2.15;;
65535;SDS011;52145;49.342;9.116;2022-09-21T17:16:41;2.85;;;1.23;;
65535;SDS011;52145;49.342;9.116;2022-09-21T17:19:11;1.45;;;1.00;;
65535;SDS011;52145;49.342;9.116;2022-09-21T17:21:37;2.53;;;0.95;;
65535;SDS011;52145;49.342;9.116;2022-09-21T17:24:03;2.58;;;1.10;;
65535;SDS011;52145;49.342;9.116;2022-09-21T17:26:29;1.88;;;0.90;;
65535;SDS011;52145;49.342;9.116;2022-09-21T17:28:56;0.80;;;0.70;;
65535;SDS011;52145;49.342;9.116;2022-09-21T17:31:21;2.33;;;1.10;;
65535;SDS011;52145;49.342;9.116;2022-09-21T17:33:48;1.98;;;1.02;;
65535;SDS011;52145;49.342;9.116;2022-09-21T17:36:15;1.65;;;0.90;;
65535;SDS011;52145;49.342;9.116;2022-09-21T17:38:42;2.95;;;1.27;;
65535;SDS011;52145;49.342;9.116;2022-09-21T17:41:24;1.90;;;1.10;;
65535;SDS011;52145;49.342;9.116;2022-09-21T17:43:58;2.75;;;1.05;;
65535;SDS011;52145;49.342;9.116;2022-09-21T17:46:41;1.63;;;1.08;;
65535;SDS011;52145;49.342;9.116;2022-09-21T17:49:18;3.97;;;1.40;;
65535;SDS011;52145;49.342;9.116;2022-09-21T17:51:44;4.38;;;1.60;;
65535;SDS011;52145;49.342;9.116;2022-09-21T17:54:32;3.75;;;1.65;;
65535;SDS011;52145;49.342;9.116;2022-09-21T17:59:47;5.03;;;1.90;;
65535;SDS011;52145;49.342;9.116;2022-09-21T18:02:21;4.07;;;1.42;;
65535;SDS011;52145;49.342;9.116;2022-09-21T18:04:49;4.80;;;1.67;;
65535;SDS011;52145;49.342;9.116;2022-09-21T18:07:21;2.60;;;1.55;;
65535;SDS011;52145;49.342;9.116;2022-09-21T18:09:49;1.75;;;1.23;;
65535;SDS011;52145;49.342;9.116;2022-09-21T18:15:28;3.85;;;1.40;;
65535;SDS011;52145;49.342;9.116;2022-09-21T18:20:59;4.68;;;1.75;;
65535;SDS011;52145;49.342;9.116;2022-09-21T18:23:42;3.33;;;1.42;;
65535;SDS011;52145;49.342;9.116;2022-09-21T18:26:31;3.38;;;1.48;;
65535;SDS011;52145;49.342;9.116;2022-09-21T18:28:58;7.05;;;1.52;;
65535;SDS011;52145;49.342;9.116;2022-09-21T18:34:28;3.45;;;1.50;;
65535;SDS011;52145;49.342;9.116;2022-09-21T18:45:22;3.80;;;1.90;;
65535;SDS011;52145;49.342;9.116;2022-09-21T18:50:45;2.40;;;1.60;;